createdAt,value
2023-12-21T00:01:51.157Z,3.90
2023-12-21T00:04:19.681Z,2.80
2023-12-21T00:06:47.524Z,2.97
2023-12-21T00:09:15.895Z,3.00
2023-12-21T00:11:44.052Z,3.55
2023-12-21T00:14:11.887Z,3.12
2023-12-21T00:16:39.882Z,3.47
2023-12-21T00:19:08.277Z,2.58
2023-12-21T00:21:36.290Z,2.22
2023-12-21T00:24:04.210Z,3.08
2023-12-21T00:26:32.664Z,2.60
2023-12-21T00:29:00.390Z,2.70
2023-12-21T00:31:28.344Z,2.30
2023-12-21T00:33:56.725Z,1.90
2023-12-21T00:36:24.530Z,2.28
2023-12-21T00:38:52.476Z,2.42
2023-12-21T00:41:20.570Z,2.60
2023-12-21T00:43:48.419Z,2.50
2023-12-21T00:46:16.501Z,2.40
2023-12-21T00:48:44.916Z,2.53
2023-12-21T00:51:12.979Z,2.50
2023-12-21T00:53:41.089Z,2.42
2023-12-21T00:56:10.165Z,2.22
2023-12-21T00:58:38.428Z,2.20
2023-12-21T01:01:06.694Z,1.87
2023-12-21T01:03:35.390Z,2.12
2023-12-21T01:06:03.548Z,2.47
2023-12-21T01:08:31.712Z,2.35
2023-12-21T01:11:01.438Z,2.78
2023-12-21T01:13:29.826Z,2.33
2023-12-21T01:16:00.270Z,1.90
2023-12-21T01:18:32.041Z,1.67
2023-12-21T01:21:00.289Z,2.08
2023-12-21T01:23:28.373Z,1.92
2023-12-21T01:25:56.548Z,1.35
2023-12-21T01:28:24.568Z,1.70
2023-12-21T01:30:52.733Z,1.58
2023-12-21T01:33:20.538Z,1.95
2023-12-21T01:35:49.209Z,2.60
2023-12-21T01:38:17.449Z,1.80
2023-12-21T01:40:45.355Z,1.48
2023-12-21T01:43:13.701Z,1.95
2023-12-21T01:45:41.775Z,1.70
2023-12-21T01:48:11.644Z,1.50
2023-12-21T01:50:42.136Z,1.70
2023-12-21T01:53:13.139Z,1.80
2023-12-21T01:55:41.913Z,1.73
2023-12-21T01:58:09.920Z,1.50
2023-12-21T02:00:38.999Z,1.70
2023-12-21T02:03:07.476Z,1.83
2023-12-21T02:05:35.578Z,1.83
2023-12-21T02:08:03.623Z,1.95
2023-12-21T02:10:32.049Z,1.83
2023-12-21T02:13:00.187Z,2.17
2023-12-21T02:15:28.257Z,2.12
2023-12-21T02:17:56.900Z,1.58
2023-12-21T02:20:24.994Z,1.75
2023-12-21T02:22:53.718Z,2.42
2023-12-21T02:25:21.958Z,1.40
2023-12-21T02:27:51.545Z,2.25
2023-12-21T02:30:20.121Z,1.83
2023-12-21T02:32:49.437Z,2.17
2023-12-21T02:35:17.873Z,2.40
2023-12-21T02:37:46.457Z,2.72
2023-12-21T02:40:15.683Z,2.35
2023-12-21T02:42:44.033Z,1.80
2023-12-21T02:45:12.580Z,2.15
2023-12-21T02:47:41.672Z,2.30
2023-12-21T02:50:10.339Z,2.25
2023-12-21T02:52:38.738Z,1.90
2023-12-21T02:55:10.410Z,2.03
2023-12-21T02:57:38.642Z,2.62
2023-12-21T03:00:09.265Z,2.20
2023-12-21T03:02:37.666Z,2.33
2023-12-21T03:05:06.355Z,1.95
2023-12-21T03:07:35.541Z,1.73
2023-12-21T03:10:06.688Z,1.92
2023-12-21T03:12:34.813Z,2.15
2023-12-21T03:15:03.508Z,2.35
2023-12-21T03:17:31.645Z,2.35
2023-12-21T03:19:59.528Z,2.60
2023-12-21T03:22:27.735Z,2.72
2023-12-21T03:24:55.926Z,2.67
2023-12-21T03:27:23.737Z,3.00
2023-12-21T03:29:52.631Z,3.05
2023-12-21T03:32:21.194Z,2.53
2023-12-21T03:34:50.653Z,2.40
2023-12-21T03:37:18.411Z,2.62
2023-12-21T03:39:47.546Z,2.22
2023-12-21T03:42:15.346Z,2.95
2023-12-21T03:44:43.133Z,2.40
2023-12-21T03:47:11.208Z,2.72
2023-12-21T03:49:39.049Z,2.83
2023-12-21T03:52:07.226Z,2.72
2023-12-21T03:54:35.414Z,2.53
2023-12-21T03:57:03.150Z,2.60
2023-12-21T03:59:30.914Z,3.15
2023-12-21T04:01:59.179Z,2.62
2023-12-21T04:04:28.985Z,2.28
2023-12-21T04:06:57.060Z,2.72
2023-12-21T04:09:26.466Z,3.42
2023-12-21T04:11:55.063Z,2.97
2023-12-21T04:14:22.537Z,2.08
2023-12-21T04:16:52.204Z,1.80
2023-12-21T04:19:20.262Z,1.90
2023-12-21T04:21:47.770Z,2.08
2023-12-21T04:24:15.898Z,2.60
2023-12-21T04:26:44.026Z,1.70
2023-12-21T04:29:11.354Z,2.30
2023-12-21T04:31:43.858Z,3.00
2023-12-21T04:34:11.745Z,2.42
2023-12-21T04:36:39.243Z,2.47
2023-12-21T04:39:06.512Z,2.10
2023-12-21T04:41:34.145Z,3.55
2023-12-21T04:44:01.658Z,3.65
2023-12-21T04:46:29.080Z,3.20
2023-12-21T04:48:56.722Z,3.28
2023-12-21T04:51:24.149Z,3.00
2023-12-21T04:53:52.914Z,3.30
2023-12-21T04:56:20.702Z,3.25
2023-12-21T04:58:48.081Z,4.12
2023-12-21T05:01:15.879Z,4.65
2023-12-21T05:03:44.179Z,4.40
2023-12-21T05:06:11.736Z,3.67
2023-12-21T05:08:39.178Z,5.15
2023-12-21T05:11:06.918Z,5.55
2023-12-21T05:13:34.368Z,5.22
2023-12-21T05:16:01.814Z,5.93
2023-12-21T05:18:29.817Z,8.25
2023-12-21T05:21:00.431Z,7.18
2023-12-21T05:23:28.146Z,6.80
2023-12-21T05:25:56.658Z,6.72
2023-12-21T05:28:24.426Z,6.97
2023-12-21T05:30:52.764Z,7.70
2023-12-21T05:33:20.845Z,8.00
2023-12-21T05:35:48.702Z,9.25
2023-12-21T05:38:16.371Z,11.60
2023-12-21T05:40:44.459Z,11.73
2023-12-21T05:43:12.281Z,10.57
2023-12-21T05:45:40.200Z,12.18
2023-12-21T05:48:08.495Z,11.07
2023-12-21T05:50:36.400Z,10.45
2023-12-21T05:53:04.903Z,11.80
2023-12-21T05:55:32.783Z,13.23
2023-12-21T05:58:00.528Z,14.07
2023-12-21T06:00:27.916Z,12.65
2023-12-21T06:02:55.411Z,12.32
2023-12-21T06:05:22.956Z,14.23
2023-12-21T06:07:51.446Z,14.25
2023-12-21T06:10:19.224Z,13.80
2023-12-21T06:12:47.388Z,15.02
2023-12-21T06:15:16.357Z,12.48
2023-12-21T06:17:44.412Z,13.13
2023-12-21T06:20:12.648Z,14.95
2023-12-21T06:22:40.292Z,14.85
2023-12-21T06:25:08.706Z,15.32
2023-12-21T06:27:36.053Z,15.73
2023-12-21T06:30:03.493Z,13.98
2023-12-21T06:32:31.527Z,15.20
2023-12-21T06:34:58.918Z,15.20
2023-12-21T06:37:26.236Z,16.50
2023-12-21T06:39:55.724Z,16.00
2023-12-21T06:42:23.886Z,17.30
2023-12-21T06:44:51.436Z,16.92
2023-12-21T06:47:19.128Z,18.25
2023-12-21T06:49:46.597Z,17.25
2023-12-21T06:52:14.010Z,17.33
2023-12-21T06:54:41.607Z,17.42
2023-12-21T06:57:09.050Z,17.08
2023-12-21T06:59:36.594Z,16.83
2023-12-21T07:02:04.599Z,16.85
2023-12-21T07:04:32.452Z,16.90
2023-12-21T07:07:00.459Z,17.52
2023-12-21T07:09:28.742Z,18.15
2023-12-21T07:11:57.280Z,18.40
2023-12-21T07:14:24.918Z,18.05
2023-12-21T07:16:53.081Z,16.67
2023-12-21T07:19:20.765Z,14.50
2023-12-21T07:21:48.418Z,16.70
2023-12-21T07:24:16.694Z,16.08
2023-12-21T07:26:44.414Z,17.12
2023-12-21T07:29:12.359Z,17.75
2023-12-21T07:31:42.070Z,15.40
2023-12-21T07:34:10.665Z,16.00
2023-12-21T07:36:39.804Z,14.73
2023-12-21T07:39:08.223Z,15.95
2023-12-21T07:41:36.259Z,15.95
2023-12-21T07:44:07.981Z,17.48
2023-12-21T07:46:36.666Z,17.40
2023-12-21T07:49:05.146Z,18.42
2023-12-21T07:51:33.660Z,17.85
2023-12-21T07:54:05.339Z,18.62
2023-12-21T07:56:34.337Z,18.33
2023-12-21T07:59:05.840Z,18.65
2023-12-21T08:01:33.220Z,18.27
2023-12-21T08:04:01.171Z,17.67
2023-12-21T08:06:29.033Z,15.25
2023-12-21T08:08:58.300Z,13.80
2023-12-21T08:11:29.419Z,11.80
2023-12-21T08:13:58.385Z,12.88
2023-12-21T08:16:26.030Z,11.30
2023-12-21T08:18:53.466Z,11.90
2023-12-21T08:21:20.662Z,10.85
2023-12-21T08:23:48.762Z,10.60
2023-12-21T08:26:16.868Z,10.07
2023-12-21T08:28:44.359Z,10.25
2023-12-21T08:31:12.404Z,10.05
2023-12-21T08:33:43.048Z,9.80
2023-12-21T08:36:16.529Z,9.68
2023-12-21T08:38:43.894Z,8.45
2023-12-21T08:41:11.240Z,9.30
2023-12-21T08:43:38.916Z,8.35
2023-12-21T08:46:06.242Z,10.15
2023-12-21T08:48:33.662Z,10.00
2023-12-21T08:51:01.181Z,9.73
2023-12-21T08:53:28.435Z,11.00
2023-12-21T08:55:55.723Z,10.38
2023-12-21T08:58:23.322Z,10.32
2023-12-21T09:00:50.846Z,10.50
2023-12-21T09:03:20.950Z,9.63
2023-12-21T09:09:19.138Z,14.45
2023-12-21T09:11:47.272Z,11.45
2023-12-21T09:14:14.988Z,16.67
2023-12-21T09:16:42.746Z,13.30
2023-12-21T09:19:11.659Z,12.45
2023-12-21T09:21:40.882Z,12.07
2023-12-21T09:24:09.736Z,12.23
2023-12-21T09:26:37.722Z,10.80
2023-12-21T09:29:05.562Z,11.45
2023-12-21T09:31:33.726Z,12.55
2023-12-21T09:34:05.758Z,12.37
2023-12-21T09:36:34.915Z,11.65
2023-12-21T09:39:31.346Z,12.75
2023-12-21T09:42:10.281Z,13.23
2023-12-21T09:44:38.630Z,12.50
2023-12-21T09:47:06.846Z,12.55
2023-12-21T09:49:38.990Z,12.90
2023-12-21T09:52:11.447Z,13.38
2023-12-21T09:54:42.668Z,13.90
2023-12-21T09:57:10.877Z,14.30
2023-12-21T09:59:39.011Z,12.57
2023-12-21T10:02:13.459Z,13.48
2023-12-21T10:08:12.564Z,10.60
2023-12-21T10:10:40.360Z,14.48
2023-12-21T10:13:07.701Z,10.13
2023-12-21T10:15:35.109Z,9.60
2023-12-21T10:18:07.245Z,10.80
2023-12-21T10:20:34.884Z,10.63
2023-12-21T10:23:02.097Z,11.70
2023-12-21T10:25:29.541Z,10.80
2023-12-21T10:27:57.590Z,10.65
2023-12-21T10:30:25.777Z,9.32
2023-12-21T10:32:56.664Z,10.88
2023-12-21T10:35:27.993Z,9.70
2023-12-21T10:37:56.045Z,10.00
2023-12-21T10:40:23.987Z,9.45
2023-12-21T10:42:53.287Z,10.20
2023-12-21T10:45:30.198Z,10.27
2023-12-21T10:48:09.502Z,9.57
2023-12-21T10:50:38.153Z,8.55
2023-12-21T10:53:05.858Z,8.88
2023-12-21T10:55:33.707Z,9.18
2023-12-21T10:58:04.125Z,10.10
2023-12-21T11:00:32.324Z,9.48
2023-12-21T11:03:18.027Z,8.52
2023-12-21T11:05:46.406Z,9.40
2023-12-21T11:08:14.384Z,10.68
2023-12-21T11:10:42.212Z,8.68
2023-12-21T11:13:11.144Z,9.80
2023-12-21T11:15:38.559Z,10.38
2023-12-21T11:18:09.741Z,9.20
2023-12-21T11:20:56.180Z,11.68
2023-12-21T11:23:24.611Z,8.73
2023-12-21T11:25:58.053Z,8.55
2023-12-21T11:28:30.482Z,8.07
2023-12-21T11:30:58.102Z,8.43
2023-12-21T11:33:30.407Z,8.57
2023-12-21T11:36:03.951Z,8.38
2023-12-21T11:38:52.666Z,9.82
2023-12-21T11:41:25.375Z,9.57
2023-12-21T11:43:58.305Z,8.98
2023-12-21T11:50:10.710Z,8.48
2023-12-21T11:56:16.727Z,8.63
2023-12-21T11:58:52.025Z,8.77
2023-12-21T12:01:27.888Z,8.93
2023-12-21T12:03:57.749Z,9.77
2023-12-21T12:06:29.827Z,8.73
2023-12-21T12:08:57.676Z,9.10
2023-12-21T12:11:26.624Z,8.77
2023-12-21T12:13:54.626Z,8.38
2023-12-21T12:16:22.549Z,13.82
2023-12-21T12:18:50.712Z,8.07
2023-12-21T12:21:18.255Z,9.02
2023-12-21T12:23:49.124Z,7.85
2023-12-21T12:26:17.463Z,8.93
2023-12-21T12:28:48.695Z,9.13
2023-12-21T12:31:16.379Z,7.90
2023-12-21T12:33:43.640Z,8.35
2023-12-21T12:36:11.081Z,7.87
2023-12-21T12:38:38.506Z,8.35
2023-12-21T12:41:08.281Z,9.73
2023-12-21T12:43:36.384Z,8.55
2023-12-21T12:46:06.256Z,8.77
2023-12-21T12:48:33.796Z,8.05
2023-12-21T12:51:01.505Z,7.97
2023-12-21T12:53:30.984Z,9.30
2023-12-21T12:55:59.373Z,9.48
2023-12-21T12:58:48.332Z,9.75
2023-12-21T13:01:26.838Z,10.00
2023-12-21T13:03:55.825Z,11.07
2023-12-21T13:06:25.238Z,9.50
2023-12-21T13:08:52.571Z,9.18
2023-12-21T13:11:19.923Z,8.27
2023-12-21T13:13:48.207Z,10.35
2023-12-21T13:16:19.720Z,11.20
2023-12-21T13:18:48.429Z,11.75
2023-12-21T13:21:15.799Z,12.13
2023-12-21T13:23:43.614Z,9.98
2023-12-21T13:26:14.112Z,9.13
2023-12-21T13:28:45.052Z,9.93
2023-12-21T13:31:13.454Z,8.68
2023-12-21T13:33:41.129Z,9.80
2023-12-21T13:36:11.306Z,8.85
2023-12-21T13:38:42.020Z,10.13
2023-12-21T13:41:10.626Z,11.70
2023-12-21T13:43:38.464Z,10.00
2023-12-21T13:46:08.476Z,9.13
2023-12-21T13:48:36.736Z,10.10
2023-12-21T13:51:04.938Z,9.13
2023-12-21T13:53:35.642Z,8.25
2023-12-21T13:56:04.250Z,9.65
2023-12-21T14:02:05.990Z,9.85
2023-12-21T14:07:47.846Z,7.85
2023-12-21T14:10:16.568Z,7.87
2023-12-21T14:12:44.617Z,8.57
2023-12-21T14:15:12.637Z,7.43
2023-12-21T14:17:42.083Z,8.38
2023-12-21T14:20:12.699Z,8.35
2023-12-21T14:22:41.105Z,9.30
2023-12-21T14:25:09.653Z,9.75
2023-12-21T14:27:37.416Z,8.50
2023-12-21T14:30:06.418Z,10.00
2023-12-21T14:32:37.316Z,8.65
2023-12-21T14:35:05.905Z,9.27
2023-12-21T14:37:33.758Z,10.35
2023-12-21T14:40:01.531Z,10.27
2023-12-21T14:42:34.267Z,12.13
2023-12-21T14:45:03.382Z,11.90
2023-12-21T14:47:32.857Z,12.18
2023-12-21T14:50:00.577Z,11.68
2023-12-21T14:52:28.494Z,13.57
2023-12-21T14:54:56.557Z,14.93
2023-12-21T14:57:25.089Z,16.05
2023-12-21T14:59:54.113Z,16.12
2023-12-21T15:02:22.050Z,14.32
2023-12-21T15:04:50.592Z,15.05
2023-12-21T15:07:19.881Z,14.50
2023-12-21T15:09:47.923Z,17.45
2023-12-21T15:12:19.024Z,16.17
2023-12-21T15:14:47.801Z,17.87
2023-12-21T15:17:15.702Z,17.10
2023-12-21T15:19:43.332Z,14.95
2023-12-21T15:22:11.182Z,21.00
2023-12-21T15:24:39.199Z,14.05
2023-12-21T15:27:07.024Z,13.62
2023-12-21T15:29:34.730Z,13.62
2023-12-21T15:32:03.042Z,13.02
2023-12-21T15:34:32.585Z,13.38
2023-12-21T15:37:00.706Z,12.80
2023-12-21T15:39:28.879Z,14.18
2023-12-21T15:41:57.993Z,12.43
2023-12-21T15:44:26.029Z,12.50
2023-12-21T15:46:54.075Z,13.73
2023-12-21T15:49:23.676Z,14.40
2023-12-21T15:51:51.396Z,12.82
2023-12-21T15:54:19.319Z,13.32
2023-12-21T15:56:47.376Z,13.40
2023-12-21T15:59:15.101Z,13.20
2023-12-21T16:01:43.828Z,13.77
2023-12-21T16:04:12.484Z,13.40
2023-12-21T16:06:40.376Z,14.40
2023-12-21T16:09:08.195Z,14.95
2023-12-21T16:11:36.135Z,18.80
2023-12-21T16:14:03.908Z,13.35
2023-12-21T16:16:31.761Z,15.63
2023-12-21T16:18:59.837Z,19.50
2023-12-21T16:21:28.621Z,21.62
2023-12-21T16:23:56.874Z,19.20
2023-12-21T16:26:24.787Z,14.40
2023-12-21T16:28:52.560Z,13.73
2023-12-21T16:31:20.406Z,13.52
2023-12-21T16:33:48.510Z,14.15
2023-12-21T16:36:16.019Z,12.48
2023-12-21T16:38:43.204Z,16.00
2023-12-21T16:41:11.192Z,16.83
2023-12-21T16:43:43.188Z,14.90
2023-12-21T16:46:10.872Z,20.50
2023-12-21T16:48:39.555Z,21.40
2023-12-21T16:51:12.786Z,14.38
2023-12-21T16:53:40.406Z,14.45
2023-12-21T16:56:07.635Z,14.60
2023-12-21T16:58:35.003Z,11.07
2023-12-21T17:01:03.137Z,11.07
2023-12-21T17:03:32.728Z,12.48
2023-12-21T17:06:00.045Z,17.45
2023-12-21T17:08:27.595Z,20.33
2023-12-21T17:10:55.163Z,17.08
2023-12-21T17:13:25.456Z,11.75
2023-12-21T17:15:54.657Z,11.52
2023-12-21T17:18:22.430Z,10.43
2023-12-21T17:20:49.960Z,10.07
2023-12-21T17:23:17.534Z,12.82
2023-12-21T17:25:45.020Z,9.23
2023-12-21T17:28:12.705Z,9.60
2023-12-21T17:30:40.313Z,10.52
2023-12-21T17:33:07.661Z,10.77
2023-12-21T17:35:37.807Z,11.70
2023-12-21T17:38:05.319Z,14.32
2023-12-21T17:40:32.478Z,15.23
2023-12-21T17:43:00.329Z,17.23
2023-12-21T17:45:27.851Z,16.27
2023-12-21T17:47:55.002Z,17.33
2023-12-21T17:53:53.709Z,20.30
2023-12-21T17:56:21.728Z,23.50
2023-12-21T17:58:49.865Z,18.52
2023-12-21T18:01:17.639Z,13.32
2023-12-21T18:03:45.171Z,13.43
2023-12-21T18:06:12.417Z,11.20
2023-12-21T18:08:40.877Z,11.45
2023-12-21T18:11:12.437Z,12.20
2023-12-21T18:13:42.812Z,12.98
2023-12-21T18:16:11.280Z,16.30
2023-12-21T18:18:39.611Z,12.07
2023-12-21T18:21:08.920Z,12.02
2023-12-21T18:23:37.849Z,11.52
2023-12-21T18:26:06.132Z,12.45
2023-12-21T18:28:35.016Z,14.30
2023-12-21T18:31:03.898Z,12.13
2023-12-21T18:33:32.923Z,13.75
2023-12-21T18:39:32.797Z,13.20
2023-12-21T18:42:01.542Z,13.43
2023-12-21T18:44:30.235Z,15.07
2023-12-21T18:46:59.286Z,15.88
2023-12-21T18:49:29.079Z,20.40
2023-12-21T18:51:58.086Z,19.17
2023-12-21T18:54:28.017Z,20.80
2023-12-21T18:56:58.199Z,18.25
2023-12-21T18:59:27.238Z,18.42
2023-12-21T19:01:56.177Z,15.52
2023-12-21T19:04:25.287Z,14.23
2023-12-21T19:06:56.194Z,15.57
2023-12-21T19:09:24.898Z,18.02
2023-12-21T19:11:53.227Z,17.65
2023-12-21T19:14:21.664Z,16.23
2023-12-21T19:16:50.952Z,16.10
2023-12-21T19:19:19.707Z,14.35
2023-12-21T19:21:48.343Z,13.73
2023-12-21T19:24:17.317Z,12.93
2023-12-21T19:26:46.214Z,13.02
2023-12-21T19:32:45.173Z,13.25
2023-12-21T19:37:45.909Z,12.80
2023-12-21T19:40:15.333Z,13.25
2023-12-21T19:42:44.058Z,12.85
2023-12-21T19:45:12.746Z,14.13
2023-12-21T19:47:41.397Z,15.52
2023-12-21T19:50:10.445Z,16.20
2023-12-21T19:52:39.352Z,12.75
2023-12-21T19:55:08.142Z,14.63
2023-12-21T19:57:36.129Z,14.30
2023-12-21T20:00:07.680Z,14.80
2023-12-21T20:02:39.328Z,16.10
2023-12-21T20:05:11.572Z,14.32
2023-12-21T20:07:46.660Z,13.85
2023-12-21T20:10:17.268Z,14.02
2023-12-21T20:12:47.056Z,14.75
2023-12-21T20:15:16.805Z,15.23
2023-12-21T20:17:47.331Z,17.50
2023-12-21T20:20:17.991Z,16.67
2023-12-21T20:22:48.983Z,12.35
2023-12-21T20:25:17.807Z,13.27
2023-12-21T20:27:51.036Z,17.62
2023-12-21T20:30:20.008Z,18.83
2023-12-21T20:32:50.606Z,15.40
2023-12-21T20:35:20.058Z,16.87
2023-12-21T20:37:49.781Z,17.65
2023-12-21T20:40:18.847Z,16.77
2023-12-21T20:42:47.363Z,17.80
2023-12-21T20:45:16.462Z,15.50
2023-12-21T20:47:44.936Z,12.35
2023-12-21T20:50:18.564Z,12.30
2023-12-21T20:52:48.640Z,12.07
2023-12-21T20:55:17.602Z,12.73
2023-12-21T21:01:16.445Z,14.52
2023-12-21T21:17:47.766Z,16.87
2023-12-21T21:20:16.848Z,18.73
2023-12-21T21:26:03.773Z,15.88
2023-12-21T21:28:54.826Z,16.30
2023-12-21T21:31:34.758Z,15.68
2023-12-21T21:34:02.619Z,15.57
2023-12-21T21:36:29.991Z,16.98
2023-12-21T21:42:06.513Z,14.70
2023-12-21T21:44:34.528Z,15.98
2023-12-21T21:47:04.217Z,36.17
2023-12-21T21:49:31.875Z,18.17
2023-12-21T21:55:30.669Z,15.05
2023-12-21T22:01:30.263Z,15.18
2023-12-21T22:03:57.790Z,16.05
2023-12-21T22:06:28.585Z,15.57
2023-12-21T22:08:55.882Z,15.77
2023-12-21T22:11:26.269Z,15.65
2023-12-21T22:13:53.534Z,15.98
2023-12-21T22:19:51.587Z,16.20
2023-12-21T22:25:39.204Z,15.80
2023-12-21T22:31:37.555Z,16.73
2023-12-21T22:34:05.590Z,15.32
2023-12-21T22:40:03.484Z,13.90
2023-12-21T22:42:34.777Z,14.95
2023-12-21T22:45:02.453Z,15.38
2023-12-21T22:51:00.285Z,14.60
2023-12-21T22:56:58.419Z,15.10
2023-12-21T22:59:26.302Z,15.32
2023-12-21T23:01:54.050Z,17.10
2023-12-21T23:04:22.062Z,18.67
2023-12-21T23:06:50.093Z,16.40
2023-12-21T23:09:17.789Z,15.88
2023-12-21T23:11:45.375Z,15.82
2023-12-21T23:14:13.301Z,14.52
2023-12-21T23:16:41.239Z,15.93
2023-12-21T23:19:10.869Z,15.73
2023-12-21T23:21:40.509Z,16.00
2023-12-21T23:24:08.391Z,15.70
2023-12-21T23:26:36.037Z,16.40
2023-12-21T23:29:05.185Z,15.77
2023-12-21T23:31:34.115Z,16.25
2023-12-21T23:34:01.830Z,22.37
2023-12-21T23:36:29.835Z,14.85
2023-12-21T23:38:57.494Z,16.48
2023-12-21T23:41:25.092Z,16.55
2023-12-21T23:43:52.545Z,15.68
2023-12-21T23:46:20.248Z,16.37
2023-12-21T23:48:48.534Z,16.45
2023-12-21T23:51:16.516Z,17.65
2023-12-21T23:53:43.589Z,15.43
2023-12-21T23:56:12.174Z,16.50
2023-12-21T23:58:40.363Z,17.10
